createdAt,value
2022-10-06T00:00:32.038Z,0
2022-10-06T00:02:58.659Z,0
2022-10-06T00:05:25.322Z,0
2022-10-06T00:07:51.907Z,0
2022-10-06T00:10:18.524Z,0
2022-10-06T00:12:45.150Z,0
2022-10-06T00:15:11.764Z,0
2022-10-06T00:17:36.893Z,0
2022-10-06T00:20:03.512Z,0
2022-10-06T00:22:30.141Z,0
2022-10-06T00:24:56.775Z,0
2022-10-06T00:27:23.386Z,0
2022-10-06T00:29:50.010Z,0
2022-10-06T00:32:16.631Z,0
2022-10-06T00:34:43.258Z,0
2022-10-06T00:37:09.880Z,0
2022-10-06T00:39:36.495Z,0
2022-10-06T00:42:03.129Z,0
2022-10-06T00:44:29.753Z,0
2022-10-06T00:46:56.393Z,0
2022-10-06T00:49:21.521Z,0
2022-10-06T00:51:48.124Z,0
2022-10-06T00:54:14.744Z,0
2022-10-06T00:56:41.378Z,0
2022-10-06T00:59:07.990Z,0
2022-10-06T01:01:34.616Z,0
2022-10-06T01:04:01.231Z,0
2022-10-06T01:06:27.935Z,0
2022-10-06T01:08:54.478Z,0
2022-10-06T01:11:21.099Z,0
2022-10-06T01:13:47.717Z,0
2022-10-06T01:16:14.357Z,0
2022-10-06T01:18:40.969Z,0
2022-10-06T01:21:06.143Z,0
2022-10-06T01:23:32.715Z,0
2022-10-06T01:25:59.364Z,0
2022-10-06T01:28:25.957Z,0
2022-10-06T01:30:52.599Z,0
2022-10-06T01:33:19.194Z,0
2022-10-06T01:35:45.835Z,0
2022-10-06T01:38:12.455Z,0
2022-10-06T01:40:39.067Z,0
2022-10-06T01:43:05.690Z,0
2022-10-06T01:45:32.322Z,0
2022-10-06T01:47:58.947Z,0
2022-10-06T01:50:25.567Z,0
2022-10-06T01:52:50.689Z,0
2022-10-06T01:55:17.321Z,0
2022-10-06T01:57:43.943Z,0
2022-10-06T02:00:10.562Z,0
2022-10-06T02:02:37.186Z,0
2022-10-06T02:05:03.807Z,0
2022-10-06T02:07:30.436Z,0
2022-10-06T02:09:57.055Z,0
2022-10-06T02:12:23.685Z,0
2022-10-06T02:14:50.310Z,0
2022-10-06T02:17:16.939Z,0
2022-10-06T02:19:43.538Z,0
2022-10-06T02:22:10.155Z,0
2022-10-06T02:24:35.300Z,0
2022-10-06T02:27:01.902Z,0
2022-10-06T02:29:28.542Z,0
2022-10-06T02:31:55.168Z,0
2022-10-06T02:34:21.789Z,0
2022-10-06T02:36:48.416Z,0
2022-10-06T02:41:41.656Z,0
2022-10-06T02:44:08.288Z,0
2022-10-06T02:46:34.909Z,0
2022-10-06T02:49:01.525Z,0
2022-10-06T02:51:28.145Z,0
2022-10-06T02:53:54.768Z,0
2022-10-06T02:56:19.896Z,0
2022-10-06T02:58:46.522Z,0
2022-10-06T03:01:13.141Z,0
2022-10-06T03:03:39.769Z,0
2022-10-06T03:06:06.382Z,0
2022-10-06T03:08:33.007Z,0
2022-10-06T03:10:59.624Z,0
2022-10-06T03:13:26.290Z,0
2022-10-06T03:15:52.880Z,0
2022-10-06T03:18:19.507Z,0
2022-10-06T03:20:46.125Z,0
2022-10-06T03:23:12.746Z,0
2022-10-06T03:25:39.378Z,0
2022-10-06T03:28:04.501Z,0
2022-10-06T03:30:31.114Z,0
2022-10-06T03:32:57.752Z,0
2022-10-06T03:35:24.377Z,0
2022-10-06T03:37:50.995Z,0
2022-10-06T03:40:17.601Z,0
2022-10-06T03:42:44.263Z,0
2022-10-06T03:45:10.879Z,0
2022-10-06T03:47:37.489Z,0
2022-10-06T03:50:04.117Z,0
2022-10-06T03:52:30.731Z,0
2022-10-06T03:54:57.347Z,0
2022-10-06T03:57:23.983Z,0
2022-10-06T03:59:49.107Z,0
2022-10-06T04:02:15.751Z,0
2022-10-06T04:04:42.357Z,0
2022-10-06T04:07:08.982Z,0
2022-10-06T04:09:35.604Z,0
2022-10-06T04:12:02.233Z,0
2022-10-06T04:14:28.830Z,0
2022-10-06T04:16:55.462Z,0
2022-10-06T04:19:22.099Z,0
2022-10-06T04:21:48.717Z,0
2022-10-06T04:24:15.338Z,0
2022-10-06T04:26:41.964Z,0
2022-10-06T04:29:08.587Z,0
2022-10-06T04:31:33.704Z,0
2022-10-06T04:34:00.354Z,0
2022-10-06T04:36:26.968Z,0
2022-10-06T04:38:53.576Z,0
2022-10-06T04:41:20.203Z,0
2022-10-06T04:43:46.825Z,0
2022-10-06T04:46:13.447Z,0
2022-10-06T04:48:40.078Z,0
2022-10-06T04:51:06.698Z,0
2022-10-06T04:53:33.301Z,0
2022-10-06T04:55:59.964Z,0
2022-10-06T04:58:26.561Z,0
2022-10-06T05:00:53.180Z,0
2022-10-06T05:03:18.328Z,0
2022-10-06T05:05:45.117Z,0
2022-10-06T05:08:11.702Z,0
2022-10-06T05:10:38.317Z,0
2022-10-06T05:13:04.833Z,0
2022-10-06T05:15:31.454Z,0
2022-10-06T05:17:58.065Z,0
2022-10-06T05:20:24.688Z,0
2022-10-06T05:22:51.279Z,0
2022-10-06T05:25:17.906Z,0
2022-10-06T05:27:44.553Z,0
2022-10-06T05:30:11.172Z,0
2022-10-06T05:32:37.827Z,0
2022-10-06T05:35:02.921Z,0
2022-10-06T05:37:29.528Z,0
2022-10-06T05:39:56.171Z,0
2022-10-06T05:42:22.770Z,0
2022-10-06T05:44:49.404Z,0
2022-10-06T05:47:16.013Z,5
2022-10-06T05:49:42.647Z,5
2022-10-06T05:52:09.282Z,5
2022-10-06T05:54:35.910Z,11
2022-10-06T05:57:02.506Z,11
2022-10-06T05:59:29.135Z,11
2022-10-06T06:01:55.771Z,16
2022-10-06T06:04:22.370Z,11
2022-10-06T06:06:47.504Z,11
2022-10-06T06:09:14.140Z,16
2022-10-06T06:11:40.744Z,11
2022-10-06T06:14:07.392Z,16
2022-10-06T06:16:34.017Z,11
2022-10-06T06:19:00.621Z,16
2022-10-06T06:21:27.245Z,16
2022-10-06T06:23:53.879Z,22
2022-10-06T06:26:20.508Z,22
2022-10-06T06:28:47.111Z,28
2022-10-06T06:31:13.741Z,28
2022-10-06T06:33:40.370Z,33
2022-10-06T06:36:07.004Z,39
2022-10-06T06:38:32.107Z,50
2022-10-06T06:40:58.749Z,33
2022-10-06T06:43:25.362Z,39
2022-10-06T06:45:51.972Z,50
2022-10-06T06:48:18.609Z,50
2022-10-06T06:50:45.207Z,50
2022-10-06T06:53:11.846Z,50
2022-10-06T06:55:38.468Z,50
2022-10-06T06:58:05.088Z,50
2022-10-06T07:00:31.712Z,61
2022-10-06T07:02:58.394Z,78
2022-10-06T07:05:24.958Z,84
2022-10-06T07:07:51.576Z,106
2022-10-06T07:10:16.773Z,112
2022-10-06T07:12:43.428Z,129
2022-10-06T07:15:10.066Z,135
2022-10-06T07:20:03.277Z,151
2022-10-06T07:22:29.828Z,151
2022-10-06T07:24:54.942Z,180
2022-10-06T07:27:21.575Z,157
2022-10-06T07:29:48.294Z,168
2022-10-06T07:32:14.819Z,168
2022-10-06T07:34:41.583Z,157
2022-10-06T07:37:08.076Z,157
2022-10-06T07:39:34.688Z,140
2022-10-06T07:42:01.370Z,135
2022-10-06T07:44:27.986Z,135
2022-10-06T07:46:54.568Z,146
2022-10-06T07:49:21.211Z,163
2022-10-06T07:51:47.795Z,157
2022-10-06T07:54:14.428Z,140
2022-10-06T07:56:39.561Z,163
2022-10-06T07:59:06.224Z,202
2022-10-06T08:01:32.804Z,241
2022-10-06T08:03:59.443Z,236
2022-10-06T08:06:26.042Z,247
2022-10-06T08:08:52.693Z,253
2022-10-06T08:11:19.298Z,225
2022-10-06T08:13:45.953Z,247
2022-10-06T08:16:12.548Z,213
2022-10-06T08:18:39.159Z,230
2022-10-06T08:21:05.785Z,265
2022-10-06T08:23:32.412Z,241
2022-10-06T08:25:59.088Z,304
2022-10-06T08:28:24.162Z,304
2022-10-06T08:30:50.850Z,355
2022-10-06T08:33:17.409Z,293
2022-10-06T08:35:44.075Z,1581
2022-10-06T08:38:10.690Z,282
2022-10-06T08:40:37.318Z,241
2022-10-06T08:43:03.889Z,253
2022-10-06T08:45:30.513Z,265
2022-10-06T08:47:57.147Z,259
2022-10-06T08:50:23.761Z,219
2022-10-06T08:52:50.404Z,225
2022-10-06T08:55:17.004Z,241
2022-10-06T08:57:43.708Z,310
2022-10-06T09:00:08.777Z,316
2022-10-06T09:02:35.370Z,310
2022-10-06T09:05:02.005Z,293
2022-10-06T09:07:28.620Z,304
2022-10-06T09:09:55.251Z,327
2022-10-06T09:12:21.856Z,344
2022-10-06T09:14:48.496Z,304
2022-10-06T09:17:15.131Z,304
2022-10-06T09:22:15.448Z,310
2022-10-06T09:31:53.364Z,355
2022-10-06T09:34:20.065Z,344
2022-10-06T09:36:46.630Z,332
2022-10-06T09:40:02.091Z,344
2022-10-06T09:41:40.007Z,355
2022-10-06T09:46:33.140Z,422
2022-10-06T09:49:04.463Z,417
2022-10-06T09:56:19.595Z,411
2022-10-06T09:58:46.209Z,417
2022-10-06T10:01:12.831Z,428
2022-10-06T10:03:37.960Z,484
2022-10-06T10:06:04.579Z,496
2022-10-06T10:08:31.206Z,473
2022-10-06T10:10:57.829Z,479
2022-10-06T10:13:24.454Z,467
2022-10-06T10:15:51.061Z,445
2022-10-06T10:18:17.705Z,451
2022-10-06T10:20:44.316Z,456
2022-10-06T10:23:10.939Z,496
2022-10-06T10:25:37.563Z,513
2022-10-06T10:28:04.170Z,519
2022-10-06T10:30:30.802Z,462
2022-10-06T10:32:57.423Z,456
2022-10-06T10:35:22.570Z,434
2022-10-06T10:37:49.179Z,428
2022-10-06T10:40:15.787Z,411
2022-10-06T10:42:42.429Z,406
2022-10-06T10:45:09.063Z,394
2022-10-06T10:47:35.744Z,411
2022-10-06T10:50:02.331Z,400
2022-10-06T10:52:28.909Z,394
2022-10-06T10:54:55.530Z,377
2022-10-06T10:57:22.155Z,372
2022-10-06T10:59:48.812Z,377
2022-10-06T11:02:15.428Z,361
2022-10-06T11:04:42.036Z,355
2022-10-06T11:07:07.164Z,282
2022-10-06T11:09:33.793Z,236
2022-10-06T11:12:00.439Z,265
2022-10-06T11:14:27.025Z,208
2022-10-06T11:16:53.635Z,219
2022-10-06T11:19:20.262Z,299
2022-10-06T11:21:46.909Z,299
2022-10-06T11:24:13.530Z,299
2022-10-06T11:26:40.166Z,310
2022-10-06T11:29:06.797Z,299
2022-10-06T11:31:33.429Z,304
2022-10-06T11:34:00.026Z,276
2022-10-06T11:36:26.668Z,253
2022-10-06T11:38:53.256Z,310
2022-10-06T11:41:18.381Z,282
2022-10-06T11:43:44.984Z,276
2022-10-06T11:46:11.625Z,202
2022-10-06T11:48:38.241Z,202
2022-10-06T11:51:04.873Z,196
2022-10-06T11:53:31.490Z,185
2022-10-06T11:55:58.112Z,174
2022-10-06T11:58:24.744Z,180
2022-10-06T12:00:51.350Z,213
2022-10-06T12:03:17.979Z,236
2022-10-06T12:05:44.639Z,253
2022-10-06T12:08:11.215Z,225
2022-10-06T12:10:37.864Z,241
2022-10-06T12:13:02.986Z,259
2022-10-06T12:15:29.618Z,282
2022-10-06T12:17:56.249Z,271
2022-10-06T12:20:22.844Z,241
2022-10-06T12:22:49.467Z,247
2022-10-06T12:25:16.103Z,247
2022-10-06T12:27:42.711Z,259
2022-10-06T12:30:09.341Z,213
2022-10-06T12:32:35.955Z,185
2022-10-06T12:35:02.595Z,163
2022-10-06T12:37:29.198Z,140
2022-10-06T12:39:55.837Z,118
2022-10-06T12:42:22.556Z,118
2022-10-06T12:44:47.600Z,135
2022-10-06T12:47:14.206Z,151
2022-10-06T12:49:40.845Z,157
2022-10-06T12:52:07.451Z,180
2022-10-06T12:54:34.072Z,180
2022-10-06T12:57:00.695Z,185
2022-10-06T12:59:27.321Z,208
2022-10-06T13:01:53.935Z,225
2022-10-06T13:04:20.552Z,230
2022-10-06T13:06:47.179Z,230
2022-10-06T13:09:13.810Z,219
2022-10-06T13:11:40.439Z,213
2022-10-06T13:14:07.065Z,213
2022-10-06T13:16:32.174Z,196
2022-10-06T13:18:58.782Z,180
2022-10-06T13:21:25.437Z,174
2022-10-06T13:23:52.047Z,168
2022-10-06T13:26:18.674Z,140
2022-10-06T13:31:11.911Z,101
2022-10-06T13:33:38.619Z,106
2022-10-06T13:36:05.162Z,140
2022-10-06T13:38:31.885Z,202
2022-10-06T13:40:58.403Z,208
2022-10-06T13:43:25.038Z,213
2022-10-06T13:45:51.740Z,219
2022-10-06T13:48:16.797Z,219
2022-10-06T13:50:43.393Z,157
2022-10-06T13:53:10.009Z,135
2022-10-06T13:55:36.635Z,135
2022-10-06T13:58:03.270Z,151
2022-10-06T14:00:29.953Z,163
2022-10-06T14:02:56.523Z,151
2022-10-06T14:05:23.142Z,157
2022-10-06T14:07:49.754Z,146
2022-10-06T14:10:16.373Z,135
2022-10-06T14:12:43.030Z,118
2022-10-06T14:15:09.621Z,90
2022-10-06T14:17:36.258Z,78
2022-10-06T14:20:01.461Z,78
2022-10-06T14:22:27.995Z,78
2022-10-06T14:24:54.618Z,78
2022-10-06T14:27:21.239Z,78
2022-10-06T14:29:47.964Z,78
2022-10-06T14:32:14.492Z,67
2022-10-06T14:34:41.095Z,61
2022-10-06T14:37:07.728Z,67
2022-10-06T14:39:34.378Z,67
2022-10-06T14:42:01.000Z,67
2022-10-06T14:44:27.627Z,78
2022-10-06T14:46:54.225Z,73
2022-10-06T14:49:20.842Z,67
2022-10-06T14:51:45.967Z,61
2022-10-06T14:54:12.617Z,61
2022-10-06T14:56:39.215Z,61
2022-10-06T14:59:05.837Z,61
2022-10-06T15:01:32.493Z,61
2022-10-06T15:03:59.104Z,61
2022-10-06T15:06:25.747Z,61
2022-10-06T15:08:52.384Z,61
2022-10-06T15:11:18.951Z,61
2022-10-06T15:13:45.580Z,56
2022-10-06T15:16:12.211Z,56
2022-10-06T15:18:38.826Z,61
2022-10-06T15:21:05.446Z,56
2022-10-06T15:23:30.566Z,56
2022-10-06T15:25:57.244Z,56
2022-10-06T15:28:23.813Z,50
2022-10-06T15:30:50.452Z,50
2022-10-06T15:33:17.074Z,45
2022-10-06T15:35:42.200Z,45
2022-10-06T15:38:08.818Z,39
2022-10-06T15:40:35.439Z,39
2022-10-06T15:43:02.066Z,39
2022-10-06T15:45:28.685Z,39
2022-10-06T15:47:55.309Z,39
2022-10-06T15:50:21.928Z,39
2022-10-06T15:52:48.563Z,39
2022-10-06T15:55:15.183Z,33
2022-10-06T15:57:41.799Z,33
2022-10-06T16:00:08.431Z,33
2022-10-06T16:02:35.041Z,33
2022-10-06T16:05:01.664Z,33
2022-10-06T16:07:26.794Z,33
2022-10-06T16:09:53.418Z,33
2022-10-06T16:12:20.039Z,28
2022-10-06T16:14:46.664Z,28
2022-10-06T16:17:13.291Z,28
2022-10-06T16:19:39.907Z,22
2022-10-06T16:22:06.536Z,22
2022-10-06T16:24:33.149Z,22
2022-10-06T16:26:59.769Z,16
2022-10-06T16:29:26.407Z,16
2022-10-06T16:31:53.074Z,11
2022-10-06T16:34:19.655Z,11
2022-10-06T16:36:46.259Z,11
2022-10-06T16:39:11.403Z,5
2022-10-06T16:41:38.012Z,5
2022-10-06T16:44:04.636Z,5
2022-10-06T16:46:31.269Z,5
2022-10-06T16:48:57.886Z,0
2022-10-06T16:51:24.498Z,0
2022-10-06T16:53:51.120Z,0
2022-10-06T16:56:17.760Z,0
2022-10-06T16:58:44.374Z,0
2022-10-06T17:01:11.003Z,0
2022-10-06T17:03:37.614Z,0
2022-10-06T17:06:04.239Z,0
2022-10-06T17:08:30.861Z,0
2022-10-06T17:10:55.999Z,0
2022-10-06T17:13:22.622Z,0
2022-10-06T17:15:49.225Z,0
2022-10-06T17:18:15.860Z,0
2022-10-06T17:20:42.478Z,0
2022-10-06T17:23:09.106Z,0
2022-10-06T17:25:35.738Z,0
2022-10-06T17:28:02.358Z,0
2022-10-06T17:30:28.975Z,0
2022-10-06T17:32:55.597Z,0
2022-10-06T17:35:22.237Z,0
2022-10-06T17:37:48.842Z,0
2022-10-06T17:40:15.499Z,0
2022-10-06T17:42:40.602Z,0
2022-10-06T17:45:07.238Z,0
2022-10-06T17:47:33.835Z,0
2022-10-06T17:50:00.466Z,0
2022-10-06T17:52:27.081Z,0
2022-10-06T17:54:53.693Z,0
2022-10-06T17:57:20.334Z,0
2022-10-06T17:59:46.969Z,0
2022-10-06T18:02:13.586Z,0
2022-10-06T18:04:40.224Z,0
2022-10-06T18:07:06.842Z,0
2022-10-06T18:09:33.444Z,0
2022-10-06T18:12:00.078Z,0
2022-10-06T18:14:25.194Z,0
2022-10-06T18:16:51.813Z,0
2022-10-06T18:19:18.430Z,0
2022-10-06T18:21:45.061Z,0
2022-10-06T18:24:11.678Z,0
2022-10-06T18:26:38.306Z,0
2022-10-06T18:29:04.938Z,0
2022-10-06T18:31:31.557Z,0
2022-10-06T18:33:58.183Z,0
2022-10-06T18:36:24.802Z,0
2022-10-06T18:38:51.425Z,0
2022-10-06T18:41:18.047Z,0
2022-10-06T18:43:44.670Z,0
2022-10-06T18:46:09.800Z,0
2022-10-06T18:48:36.420Z,0
2022-10-06T18:51:03.044Z,0
2022-10-06T18:53:29.666Z,0
2022-10-06T18:58:22.908Z,0
2022-10-06T19:00:49.532Z,0
2022-10-06T19:03:16.153Z,0
2022-10-06T19:05:42.102Z,0
2022-10-06T19:08:08.719Z,0
2022-10-06T19:10:35.351Z,0
2022-10-06T19:13:01.975Z,0
2022-10-06T19:15:28.593Z,0
2022-10-06T19:17:53.719Z,0
2022-10-06T19:20:20.344Z,0
2022-10-06T19:22:46.958Z,0
2022-10-06T19:25:13.592Z,0
2022-10-06T19:27:40.204Z,0
2022-10-06T19:30:06.829Z,0
2022-10-06T19:32:33.483Z,0
2022-10-06T19:35:00.071Z,0
2022-10-06T19:37:26.711Z,0
2022-10-06T19:39:53.375Z,0
2022-10-06T19:42:19.961Z,0
2022-10-06T19:44:46.582Z,0
2022-10-06T19:47:13.198Z,0
2022-10-06T19:49:38.322Z,0
2022-10-06T19:52:04.939Z,0
2022-10-06T19:56:58.195Z,0
2022-10-06T19:59:24.819Z,0
2022-10-06T20:01:51.436Z,0
2022-10-06T20:04:18.059Z,0
2022-10-06T20:06:44.688Z,0
2022-10-06T20:09:11.300Z,0
2022-10-06T20:11:37.952Z,0
2022-10-06T20:14:04.556Z,0
2022-10-06T20:16:31.167Z,0
2022-10-06T20:18:57.797Z,0
2022-10-06T20:21:22.921Z,0
2022-10-06T20:23:49.548Z,0
2022-10-06T20:26:16.171Z,0
2022-10-06T20:28:42.797Z,0
2022-10-06T20:31:09.419Z,0
2022-10-06T20:33:36.029Z,0
2022-10-06T20:36:02.646Z,0
2022-10-06T20:38:29.275Z,0
2022-10-06T20:40:55.917Z,0
2022-10-06T20:43:22.545Z,0
2022-10-06T20:45:49.151Z,0
2022-10-06T20:48:15.761Z,0
2022-10-06T20:50:42.400Z,0
2022-10-06T20:53:07.525Z,0
2022-10-06T20:55:34.137Z,0
2022-10-06T21:00:27.378Z,0
2022-10-06T21:02:54.005Z,0
2022-10-06T21:05:20.629Z,0
2022-10-06T21:07:47.258Z,0
2022-10-06T21:10:13.882Z,0
2022-10-06T21:12:40.514Z,0
2022-10-06T21:15:07.125Z,0
2022-10-06T21:17:33.752Z,0
2022-10-06T21:20:00.370Z,0
2022-10-06T21:22:26.983Z,0
2022-10-06T21:24:52.123Z,0
2022-10-06T21:27:18.729Z,0
2022-10-06T21:29:45.370Z,0
2022-10-06T21:32:12.004Z,0
2022-10-06T21:34:38.606Z,0
2022-10-06T21:37:05.236Z,0
2022-10-06T21:39:31.862Z,0
2022-10-06T21:41:58.480Z,0
2022-10-06T21:44:25.105Z,0
2022-10-06T21:46:51.729Z,0
2022-10-06T21:49:18.338Z,0
2022-10-06T21:51:44.969Z,0
2022-10-06T21:54:11.584Z,0
2022-10-06T21:56:36.743Z,0
2022-10-06T21:59:03.345Z,0
2022-10-06T22:01:29.964Z,0
2022-10-06T22:03:56.583Z,0
2022-10-06T22:06:23.218Z,0
2022-10-06T22:08:49.827Z,0
2022-10-06T22:11:16.461Z,0
2022-10-06T22:13:43.074Z,0
2022-10-06T22:16:09.704Z,0
2022-10-06T22:18:36.327Z,0
2022-10-06T22:21:02.958Z,0
2022-10-06T22:23:29.572Z,0
2022-10-06T22:25:56.195Z,0
2022-10-06T22:28:22.821Z,0
2022-10-06T22:30:47.948Z,0
2022-10-06T22:33:14.591Z,0
2022-10-06T22:35:41.198Z,0
2022-10-06T22:38:07.806Z,0
2022-10-06T22:40:34.446Z,0
2022-10-06T22:43:01.060Z,0
2022-10-06T22:45:27.677Z,0
2022-10-06T22:47:54.305Z,0
2022-10-06T22:50:20.939Z,0
2022-10-06T22:52:47.551Z,0
2022-10-06T22:55:14.180Z,0
2022-10-06T22:57:40.801Z,0
2022-10-06T23:00:07.423Z,0
2022-10-06T23:02:32.555Z,0
2022-10-06T23:04:59.179Z,0
2022-10-06T23:07:25.787Z,0
2022-10-06T23:09:52.406Z,0
2022-10-06T23:12:19.045Z,0
2022-10-06T23:14:45.663Z,0
2022-10-06T23:17:12.288Z,0
2022-10-06T23:19:38.912Z,0
2022-10-06T23:22:05.531Z,0
2022-10-06T23:24:32.150Z,0
2022-10-06T23:26:58.771Z,0
2022-10-06T23:29:25.395Z,0
2022-10-06T23:31:52.018Z,0
2022-10-06T23:34:18.651Z,0
2022-10-06T23:36:43.778Z,0
2022-10-06T23:39:10.401Z,0
2022-10-06T23:41:37.018Z,0
2022-10-06T23:44:03.643Z,0
2022-10-06T23:46:28.771Z,0
2022-10-06T23:48:55.402Z,0
2022-10-06T23:51:22.017Z,0
2022-10-06T23:53:48.665Z,0
2022-10-06T23:56:15.270Z,0
2022-10-06T23:58:41.879Z,0
